createdAt,value
2022-12-19T00:00:35.119Z,13.02
2022-12-19T00:03:03.220Z,13.55
2022-12-19T00:05:31.314Z,13.30
2022-12-19T00:07:59.167Z,14.13
2022-12-19T00:10:34.355Z,12.68
2022-12-19T00:13:02.323Z,13.48
2022-12-19T00:15:30.126Z,13.70
2022-12-19T00:17:57.945Z,14.05
2022-12-19T00:20:25.843Z,13.27
2022-12-19T00:22:53.672Z,13.27
2022-12-19T00:25:23.021Z,13.82
2022-12-19T00:27:52.772Z,13.18
2022-12-19T00:30:20.770Z,12.75
2022-12-19T00:32:48.717Z,14.00
2022-12-19T00:35:16.776Z,14.85
2022-12-19T00:37:49.619Z,12.75
2022-12-19T00:40:18.440Z,12.63
2022-12-19T00:42:51.746Z,14.52
2022-12-19T00:45:23.001Z,13.43
2022-12-19T00:47:50.935Z,11.90
2022-12-19T00:50:18.833Z,14.38
2022-12-19T00:52:46.635Z,12.75
2022-12-19T00:55:18.834Z,13.15
2022-12-19T01:00:16.631Z,13.25
2022-12-19T01:02:46.413Z,12.80
2022-12-19T01:05:14.370Z,12.80
2022-12-19T01:07:42.387Z,11.98
2022-12-19T01:10:11.066Z,11.75
2022-12-19T01:12:46.665Z,12.20
2022-12-19T01:15:16.692Z,13.45
2022-12-19T01:17:46.234Z,11.38
2022-12-19T01:20:15.538Z,11.40
2022-12-19T01:22:43.523Z,12.73
2022-12-19T01:25:14.569Z,11.23
2022-12-19T01:27:42.398Z,12.30
2022-12-19T01:30:11.788Z,11.60
2022-12-19T01:32:40.198Z,10.52
2022-12-19T01:35:21.349Z,11.52
2022-12-19T01:37:50.559Z,11.23
2022-12-19T01:40:18.369Z,12.30
2022-12-19T01:42:46.188Z,11.50
2022-12-19T01:45:34.036Z,11.82
2022-12-19T01:48:15.370Z,11.27
2022-12-19T01:51:01.031Z,11.90
2022-12-19T01:53:36.208Z,12.70
2022-12-19T01:56:11.640Z,12.10
2022-12-19T01:58:42.713Z,11.73
2022-12-19T02:01:10.665Z,11.43
2022-12-19T02:03:40.601Z,11.55
2022-12-19T02:06:14.635Z,11.35
2022-12-19T02:08:43.069Z,12.77
2022-12-19T02:11:11.113Z,10.73
2022-12-19T02:13:40.754Z,10.98
2022-12-19T02:16:24.757Z,11.00
2022-12-19T02:19:11.797Z,11.57
2022-12-19T02:21:54.723Z,10.95
2022-12-19T02:25:00.860Z,12.45
2022-12-19T02:28:10.926Z,11.15
2022-12-19T02:30:53.787Z,11.15
2022-12-19T02:33:32.478Z,11.90
2022-12-19T02:36:09.118Z,13.25
2022-12-19T02:38:43.335Z,12.27
2022-12-19T02:41:16.755Z,11.63
2022-12-19T02:43:57.272Z,11.90
2022-12-19T02:46:30.986Z,13.73
2022-12-19T02:48:59.454Z,12.63
2022-12-19T02:51:27.633Z,12.50
2022-12-19T02:53:55.581Z,13.88
2022-12-19T02:56:35.451Z,12.30
2022-12-19T02:59:21.633Z,11.57
2022-12-19T03:01:56.382Z,12.63
2022-12-19T03:04:36.302Z,12.23
2022-12-19T03:07:14.278Z,11.93
2022-12-19T03:09:51.908Z,11.32
2022-12-19T03:12:27.577Z,12.55
2022-12-19T03:17:29.832Z,13.20
2022-12-19T03:19:58.375Z,13.82
2022-12-19T03:22:26.295Z,11.77
2022-12-19T03:24:54.173Z,11.80
2022-12-19T03:27:27.529Z,12.55
2022-12-19T03:30:00.926Z,12.93
2022-12-19T03:32:31.825Z,12.45
2022-12-19T03:35:04.112Z,13.15
2022-12-19T03:37:35.423Z,12.68
2022-12-19T03:40:07.539Z,12.13
2022-12-19T03:42:56.652Z,12.60
2022-12-19T03:45:33.037Z,13.30
2022-12-19T03:48:08.866Z,13.98
2022-12-19T03:50:47.777Z,13.48
2022-12-19T03:53:27.374Z,12.40
2022-12-19T03:56:03.027Z,13.48
2022-12-19T03:58:34.824Z,14.00
2022-12-19T04:01:05.869Z,14.02
2022-12-19T04:03:35.395Z,13.95
2022-12-19T04:06:05.617Z,15.80
2022-12-19T04:08:34.931Z,13.88
2022-12-19T04:11:07.983Z,13.65
2022-12-19T04:13:39.815Z,13.63
2022-12-19T04:16:14.600Z,15.75
2022-12-19T04:18:48.794Z,15.15
2022-12-19T04:21:21.285Z,14.57
2022-12-19T04:23:53.904Z,13.88
2022-12-19T04:26:23.124Z,14.50
2022-12-19T04:28:54.198Z,14.65
2022-12-19T04:31:23.301Z,14.45
2022-12-19T04:33:52.667Z,14.45
2022-12-19T04:36:20.584Z,14.07
2022-12-19T04:38:48.512Z,14.00
2022-12-19T04:41:16.401Z,14.50
2022-12-19T04:43:44.371Z,15.25
2022-12-19T04:46:12.308Z,14.25
2022-12-19T04:48:40.250Z,14.93
2022-12-19T04:51:09.704Z,14.38
2022-12-19T04:53:37.662Z,15.13
2022-12-19T04:56:07.147Z,14.95
2022-12-19T04:58:35.144Z,14.80
2022-12-19T05:01:03.362Z,14.70
2022-12-19T05:03:31.290Z,14.13
2022-12-19T05:06:07.552Z,14.95
2022-12-19T05:08:38.363Z,13.63
2022-12-19T05:11:07.636Z,15.48
2022-12-19T05:13:35.856Z,13.50
2022-12-19T05:16:06.005Z,14.18
2022-12-19T05:18:34.055Z,14.90
2022-12-19T05:21:02.299Z,14.10
2022-12-19T05:23:30.317Z,14.13
2022-12-19T05:26:00.713Z,14.52
2022-12-19T05:28:29.041Z,14.65
2022-12-19T05:31:04.922Z,13.18
2022-12-19T05:33:32.850Z,15.23
2022-12-19T05:36:00.785Z,13.75
2022-12-19T05:38:29.282Z,15.93
2022-12-19T05:40:57.241Z,13.88
2022-12-19T05:43:26.665Z,15.20
2022-12-19T05:45:54.615Z,15.05
2022-12-19T05:48:22.596Z,14.15
2022-12-19T05:50:51.010Z,14.90
2022-12-19T05:53:24.561Z,14.50
2022-12-19T05:55:54.114Z,15.68
2022-12-19T05:58:22.047Z,15.43
2022-12-19T06:00:51.297Z,14.43
2022-12-19T06:03:19.276Z,13.65
2022-12-19T06:05:47.352Z,13.50
2022-12-19T06:08:15.228Z,13.85
2022-12-19T06:10:43.107Z,14.48
2022-12-19T06:13:11.011Z,14.48
2022-12-19T06:15:38.911Z,13.73
2022-12-19T06:18:09.001Z,14.63
2022-12-19T06:20:37.381Z,13.55
2022-12-19T06:23:05.520Z,14.60
2022-12-19T06:25:33.493Z,15.18
2022-12-19T06:28:01.366Z,13.77
2022-12-19T06:30:29.625Z,14.13
2022-12-19T06:32:57.493Z,15.05
2022-12-19T06:35:26.753Z,15.63
2022-12-19T06:37:59.399Z,14.80
2022-12-19T06:40:46.343Z,13.77
2022-12-19T06:43:14.205Z,13.38
2022-12-19T06:45:42.083Z,13.98
2022-12-19T06:48:10.037Z,14.15
2022-12-19T06:50:39.258Z,12.75
2022-12-19T06:53:07.119Z,13.52
2022-12-19T06:55:37.220Z,13.90
2022-12-19T06:58:05.277Z,12.73
2022-12-19T07:00:38.034Z,13.65
2022-12-19T07:03:09.331Z,14.45
2022-12-19T07:05:37.515Z,13.82
2022-12-19T07:08:06.984Z,14.23
2022-12-19T07:10:34.870Z,13.38
2022-12-19T07:13:02.939Z,12.35
2022-12-19T07:15:33.031Z,13.93
2022-12-19T07:18:01.471Z,13.35
2022-12-19T07:20:31.445Z,13.43
2022-12-19T07:22:59.401Z,14.48
2022-12-19T07:25:28.663Z,13.85
2022-12-19T07:27:56.743Z,13.23
2022-12-19T07:30:24.595Z,14.63
2022-12-19T07:32:53.105Z,12.52
2022-12-19T07:35:24.423Z,12.75
2022-12-19T07:37:52.391Z,12.07
2022-12-19T07:40:20.321Z,12.27
2022-12-19T07:42:49.610Z,13.52
2022-12-19T07:45:17.675Z,12.57
2022-12-19T07:47:48.412Z,11.75
2022-12-19T07:50:16.343Z,13.70
2022-12-19T07:52:44.786Z,12.20
2022-12-19T07:55:13.521Z,13.35
2022-12-19T07:57:41.448Z,12.00
2022-12-19T08:00:12.332Z,13.65
2022-12-19T08:02:40.511Z,12.70
2022-12-19T08:05:08.866Z,15.48
2022-12-19T08:07:36.829Z,11.65
2022-12-19T08:10:06.811Z,13.13
2022-12-19T08:12:36.029Z,12.38
2022-12-19T08:15:05.817Z,12.80
2022-12-19T08:17:38.609Z,12.55
2022-12-19T08:20:08.252Z,12.90
2022-12-19T08:22:36.460Z,12.52
2022-12-19T08:25:04.594Z,13.32
2022-12-19T08:27:32.436Z,12.55
2022-12-19T08:30:00.318Z,13.82
2022-12-19T08:32:29.642Z,12.40
2022-12-19T08:34:58.895Z,11.82
2022-12-19T08:37:26.763Z,13.05
2022-12-19T08:39:54.830Z,13.13
2022-12-19T08:42:22.676Z,12.63
2022-12-19T08:44:50.522Z,12.23
2022-12-19T08:47:18.470Z,12.00
2022-12-19T08:49:46.316Z,12.40
2022-12-19T08:52:15.542Z,12.40
2022-12-19T08:54:45.452Z,13.88
2022-12-19T08:57:13.347Z,12.27
2022-12-19T08:59:41.204Z,12.20
2022-12-19T09:02:11.071Z,11.80
2022-12-19T09:05:59.415Z,12.75
2022-12-19T09:07:29.189Z,12.13
2022-12-19T09:09:57.108Z,12.07
2022-12-19T09:12:25.095Z,11.38
2022-12-19T09:14:52.981Z,14.20
2022-12-19T09:17:20.931Z,11.48
2022-12-19T09:19:48.861Z,12.93
2022-12-19T09:22:17.618Z,13.00
2022-12-19T09:24:47.139Z,12.07
2022-12-19T09:27:15.091Z,12.15
2022-12-19T09:29:43.672Z,12.35
2022-12-19T09:32:11.523Z,12.95
2022-12-19T09:34:39.754Z,13.00
2022-12-19T09:37:16.462Z,12.48
2022-12-19T09:39:47.493Z,13.07
2022-12-19T09:42:26.420Z,13.02
2022-12-19T09:45:09.630Z,11.43
2022-12-19T09:47:45.025Z,12.65
2022-12-19T09:50:27.111Z,11.85
2022-12-19T09:53:00.601Z,12.27
2022-12-19T09:55:35.938Z,11.90
2022-12-19T09:58:09.249Z,12.70
2022-12-19T10:00:42.940Z,13.30
2022-12-19T10:03:21.827Z,12.07
2022-12-19T10:06:34.795Z,12.80
2022-12-19T10:09:04.873Z,11.63
2022-12-19T10:12:46.214Z,13.45
2022-12-19T10:14:52.327Z,13.18
2022-12-19T10:17:29.892Z,11.98
2022-12-19T10:20:19.253Z,11.73
2022-12-19T10:22:57.283Z,11.90
2022-12-19T10:25:42.778Z,11.43
2022-12-19T10:28:21.798Z,12.05
2022-12-19T10:31:01.499Z,11.88
2022-12-19T10:33:42.276Z,10.95
2022-12-19T10:36:12.039Z,12.95
2022-12-19T10:38:46.311Z,12.82
2022-12-19T10:41:23.542Z,11.90
2022-12-19T10:44:02.364Z,11.07
2022-12-19T10:46:39.446Z,12.35
2022-12-19T10:49:17.050Z,13.93
2022-12-19T10:51:54.911Z,11.82
2022-12-19T10:54:27.543Z,12.18
2022-12-19T10:57:19.228Z,12.05
2022-12-19T10:59:58.101Z,12.30
2022-12-19T11:02:36.950Z,12.13
2022-12-19T11:05:20.753Z,11.18
2022-12-19T11:08:01.590Z,12.47
2022-12-19T11:11:54.967Z,13.07
2022-12-19T11:16:05.481Z,11.63
2022-12-19T11:18:09.910Z,11.23
2022-12-19T11:29:32.466Z,11.85
2022-12-19T11:29:38.395Z,11.18
2022-12-19T11:30:09.729Z,12.52
2022-12-19T11:30:42.809Z,11.70
2022-12-19T11:33:57.145Z,11.97
2022-12-19T11:36:31.661Z,11.65
2022-12-19T11:39:01.003Z,11.82
2022-12-19T11:41:34.714Z,12.55
2022-12-19T11:44:09.834Z,11.73
2022-12-19T11:46:45.653Z,11.57
2022-12-19T11:49:24.435Z,13.18
2022-12-19T11:52:29.448Z,12.07
2022-12-19T11:55:04.510Z,11.68
2022-12-19T11:57:33.043Z,10.85
2022-12-19T12:00:05.071Z,12.63
2022-12-19T12:03:03.040Z,11.75
2022-12-19T12:05:45.721Z,12.18
2022-12-19T12:10:05.252Z,12.80
2022-12-19T12:16:05.446Z,11.77
2022-12-19T12:27:58.056Z,12.52
2022-12-19T12:30:10.099Z,12.85
2022-12-19T12:31:16.502Z,12.57
2022-12-19T12:31:21.386Z,11.98
2022-12-19T12:31:51.388Z,12.52
2022-12-19T12:32:05.580Z,11.95
2022-12-19T12:35:51.083Z,12.85
2022-12-19T12:38:37.373Z,12.85
2022-12-19T12:41:20.389Z,12.02
2022-12-19T12:44:06.012Z,11.90
2022-12-19T12:46:38.485Z,11.45
2022-12-19T12:49:24.907Z,12.73
2022-12-19T12:51:53.401Z,12.95
2022-12-19T12:54:26.923Z,12.30
2022-12-19T12:56:56.003Z,12.65
2022-12-19T12:59:25.764Z,10.88
2022-12-19T13:01:55.647Z,12.50
2022-12-19T13:04:34.105Z,12.27
2022-12-19T13:07:15.395Z,12.05
2022-12-19T13:09:45.156Z,12.82
2022-12-19T13:12:39.465Z,13.80
2022-12-19T13:15:32.574Z,12.25
2022-12-19T13:18:31.217Z,12.60
2022-12-19T13:21:00.990Z,12.25
2022-12-19T13:23:44.991Z,13.13
2022-12-19T13:26:49.374Z,11.95
2022-12-19T13:29:58.082Z,13.07
2022-12-19T13:32:26.993Z,12.73
2022-12-19T13:35:02.447Z,12.50
2022-12-19T13:39:50.481Z,13.43
2022-12-19T13:40:51.634Z,14.13
2022-12-19T13:43:40.383Z,15.10
2022-12-19T13:46:40.212Z,13.52
2022-12-19T13:49:14.436Z,14.70
2022-12-19T13:51:55.814Z,14.18
2022-12-19T13:54:28.417Z,10.75
2022-12-19T13:57:01.045Z,14.15
2022-12-19T13:59:40.250Z,15.38
2022-12-19T14:02:18.903Z,14.25
2022-12-19T14:04:47.131Z,14.43
2022-12-19T14:07:36.210Z,15.77
2022-12-19T14:11:41.014Z,14.63
2022-12-19T14:13:54.077Z,14.85
2022-12-19T14:16:05.065Z,14.50
2022-12-19T14:18:43.064Z,15.52
2022-12-19T14:22:07.898Z,14.85
2022-12-19T14:24:11.767Z,16.25
2022-12-19T14:28:18.955Z,12.93
2022-12-19T14:30:26.130Z,14.52
2022-12-19T14:33:40.659Z,14.65
2022-12-19T14:36:08.840Z,15.07
2022-12-19T14:39:19.485Z,13.77
2022-12-19T14:41:08.049Z,14.90
2022-12-19T14:43:57.550Z,14.20
2022-12-19T14:53:34.253Z,14.50
2022-12-19T14:54:13.169Z,14.52
2022-12-19T14:54:31.209Z,12.82
2022-12-19T14:56:08.549Z,15.60
2022-12-19T14:58:53.233Z,14.57
2022-12-19T15:01:24.231Z,14.23
2022-12-19T15:04:50.501Z,16.20
2022-12-19T15:07:09.586Z,14.68
2022-12-19T15:11:00.399Z,14.55
2022-12-19T15:14:48.758Z,16.70
2022-12-19T15:15:45.890Z,15.43
2022-12-19T15:18:40.060Z,14.73
2022-12-19T15:21:11.103Z,15.40
2022-12-19T15:23:39.776Z,14.45
2022-12-19T15:26:15.147Z,15.73
2022-12-19T15:28:45.216Z,15.20
2022-12-19T15:31:29.722Z,15.32
2022-12-19T15:36:45.988Z,15.65
2022-12-19T15:39:15.061Z,16.67
2022-12-19T15:41:46.627Z,15.70
2022-12-19T15:44:19.634Z,16.40
2022-12-19T15:46:49.319Z,16.58
2022-12-19T15:49:18.906Z,14.02
2022-12-19T15:51:47.492Z,15.38
2022-12-19T15:54:47.254Z,15.80
2022-12-19T15:57:05.318Z,16.50
2022-12-19T15:59:38.422Z,17.35
2022-12-19T16:02:17.570Z,14.68
2022-12-19T16:04:47.334Z,15.73
2022-12-19T16:07:20.051Z,16.08
2022-12-19T16:09:47.968Z,14.93
2022-12-19T16:12:20.245Z,16.08
2022-12-19T16:14:50.222Z,13.40
2022-12-19T16:17:21.221Z,14.25
2022-12-19T16:19:49.838Z,13.50
2022-12-19T16:22:20.497Z,15.05
2022-12-19T16:24:48.431Z,14.88
2022-12-19T16:27:24.761Z,14.60
2022-12-19T16:29:54.016Z,15.50
2022-12-19T16:32:24.501Z,15.77
2022-12-19T16:34:54.390Z,14.68
2022-12-19T16:37:27.189Z,14.45
2022-12-19T16:39:56.598Z,15.70
2022-12-19T16:42:25.838Z,14.40
2022-12-19T16:44:54.263Z,14.90
2022-12-19T16:47:22.311Z,15.23
2022-12-19T16:49:50.265Z,15.65
2022-12-19T16:52:18.155Z,15.25
2022-12-19T16:54:46.020Z,14.45
2022-12-19T16:57:20.134Z,15.80
2022-12-19T16:59:49.894Z,15.35
2022-12-19T17:02:41.641Z,17.70
2022-12-19T17:05:16.722Z,15.27
2022-12-19T17:07:44.746Z,14.60
2022-12-19T17:10:12.805Z,14.52
2022-12-19T17:12:42.812Z,15.18
2022-12-19T17:15:24.160Z,15.30
2022-12-19T17:17:54.212Z,15.00
2022-12-19T17:20:24.411Z,15.77
2022-12-19T17:22:52.461Z,14.80
2022-12-19T17:25:23.295Z,15.55
2022-12-19T17:27:52.292Z,16.10
2022-12-19T17:30:22.795Z,14.63
2022-12-19T17:32:53.071Z,16.45
2022-12-19T17:35:27.729Z,15.70
2022-12-19T17:37:57.849Z,14.57
2022-12-19T17:40:27.446Z,14.60
2022-12-19T17:42:56.171Z,13.85
2022-12-19T17:45:26.119Z,14.80
2022-12-19T17:48:02.091Z,15.73
2022-12-19T17:50:35.331Z,15.35
2022-12-19T17:53:03.223Z,15.02
2022-12-19T17:55:31.848Z,15.80
2022-12-19T17:57:59.979Z,15.95
2022-12-19T18:00:32.350Z,17.25
2022-12-19T18:03:04.901Z,15.77
2022-12-19T18:05:35.833Z,15.73
2022-12-19T18:08:04.916Z,15.68
2022-12-19T18:10:33.467Z,16.38
2022-12-19T18:13:01.460Z,15.55
2022-12-19T18:15:31.086Z,15.95
2022-12-19T18:18:00.009Z,16.05
2022-12-19T18:20:32.111Z,16.27
2022-12-19T18:23:01.693Z,16.42
2022-12-19T18:25:32.012Z,15.15
2022-12-19T18:27:59.977Z,16.75
2022-12-19T18:30:27.904Z,15.05
2022-12-19T18:32:59.790Z,15.52
2022-12-19T18:35:32.593Z,15.50
2022-12-19T18:38:02.713Z,15.93
2022-12-19T18:40:31.921Z,16.20
2022-12-19T18:43:00.294Z,16.23
2022-12-19T18:45:33.333Z,15.18
2022-12-19T18:48:05.208Z,15.20
2022-12-19T18:50:33.184Z,15.52
2022-12-19T18:53:02.045Z,16.10
2022-12-19T18:55:32.573Z,17.05
2022-12-19T18:58:00.640Z,15.35
2022-12-19T19:00:29.309Z,15.80
2022-12-19T19:03:00.444Z,16.40
2022-12-19T19:05:32.449Z,14.82
2022-12-19T19:08:12.994Z,15.90
2022-12-19T19:10:40.942Z,15.48
2022-12-19T19:13:12.149Z,15.80
2022-12-19T19:15:46.522Z,14.50
2022-12-19T19:18:15.962Z,13.70
2022-12-19T19:20:46.599Z,15.63
2022-12-19T19:23:15.357Z,14.65
2022-12-19T19:25:43.560Z,14.13
2022-12-19T19:28:11.555Z,14.70
2022-12-19T19:30:40.682Z,14.68
2022-12-19T19:33:14.131Z,13.55
2022-12-19T19:38:14.550Z,13.70
2022-12-19T19:40:43.374Z,13.57
2022-12-19T19:43:11.340Z,14.43
2022-12-19T19:45:43.181Z,13.90
2022-12-19T19:48:12.159Z,14.03
2022-12-19T19:50:40.173Z,14.65
2022-12-19T19:53:08.422Z,13.95
2022-12-19T19:55:37.759Z,13.60
2022-12-19T19:58:05.680Z,12.65
2022-12-19T20:00:33.560Z,15.68
2022-12-19T20:03:07.236Z,14.20
2022-12-19T20:05:37.525Z,14.25
2022-12-19T20:08:06.013Z,14.02
2022-12-19T20:10:34.011Z,14.05
2022-12-19T20:13:03.474Z,13.55
2022-12-19T20:15:31.769Z,14.50
2022-12-19T20:18:00.192Z,14.73
2022-12-19T20:20:28.200Z,14.07
2022-12-19T20:22:56.116Z,13.60
2022-12-19T20:25:24.169Z,14.05
2022-12-19T20:27:52.379Z,14.13
2022-12-19T20:30:22.151Z,12.85
2022-12-19T20:32:49.996Z,12.90
2022-12-19T20:35:18.072Z,12.68
2022-12-19T20:37:45.945Z,13.52
2022-12-19T20:40:14.352Z,12.75
2022-12-19T20:42:42.345Z,13.38
2022-12-19T20:45:10.973Z,14.20
2022-12-19T20:47:40.246Z,11.85
2022-12-19T20:50:09.401Z,11.93
2022-12-19T20:52:37.554Z,12.18
2022-12-19T20:55:06.168Z,12.23
2022-12-19T20:57:34.295Z,12.27
2022-12-19T21:00:02.302Z,11.35
2022-12-19T21:02:46.262Z,11.90
2022-12-19T21:05:20.549Z,12.57
2022-12-19T21:07:48.754Z,12.70
2022-12-19T21:10:16.801Z,11.48
2022-12-19T21:12:47.829Z,11.65
2022-12-19T21:15:16.650Z,11.90
2022-12-19T21:17:44.785Z,11.48
2022-12-19T21:20:13.346Z,12.13
2022-12-19T21:22:42.669Z,11.90
2022-12-19T21:25:10.661Z,11.85
2022-12-19T21:27:38.556Z,11.57
2022-12-19T21:30:07.210Z,12.15
2022-12-19T21:32:35.104Z,11.90
2022-12-19T21:35:03.017Z,12.68
2022-12-19T21:41:37.997Z,11.13
2022-12-19T21:44:06.028Z,12.48
2022-12-19T21:46:34.740Z,12.35
2022-12-19T21:49:03.625Z,11.45
2022-12-19T21:51:32.809Z,11.93
2022-12-19T21:54:02.112Z,11.10
2022-12-19T21:56:32.190Z,11.65
2022-12-19T21:59:03.056Z,10.98
2022-12-19T22:01:31.704Z,12.43
2022-12-19T22:04:00.787Z,12.40
2022-12-19T22:06:31.299Z,11.98
2022-12-19T22:09:00.243Z,11.43
2022-12-19T22:11:29.784Z,12.05
2022-12-19T22:14:01.247Z,10.95
2022-12-19T22:16:29.618Z,11.32
2022-12-19T22:18:57.810Z,10.65
2022-12-19T22:21:26.789Z,11.77
2022-12-19T22:23:57.985Z,12.00
2022-12-19T22:26:27.601Z,11.85
2022-12-19T22:28:56.893Z,12.02
2022-12-19T22:31:28.473Z,11.95
2022-12-19T22:33:59.015Z,11.25
2022-12-19T22:36:29.123Z,12.48
2022-12-19T22:38:58.705Z,11.52
2022-12-19T22:41:27.006Z,11.73
2022-12-19T22:43:55.705Z,12.90
2022-12-19T22:46:27.247Z,12.88
2022-12-19T22:48:58.203Z,12.10
2022-12-19T22:51:27.551Z,13.10
2022-12-19T22:53:55.941Z,12.20
2022-12-19T22:56:25.650Z,11.75
2022-12-19T22:58:55.309Z,11.55
2022-12-19T23:01:25.841Z,11.82
2022-12-19T23:03:57.423Z,11.63
2022-12-19T23:06:27.490Z,11.80
2022-12-19T23:08:55.456Z,12.40
2022-12-19T23:11:26.526Z,11.13
2022-12-19T23:13:54.901Z,10.75
2022-12-19T23:16:22.847Z,12.05
2022-12-19T23:18:50.838Z,11.10
2022-12-19T23:21:24.611Z,12.13
2022-12-19T23:23:56.040Z,12.32
2022-12-19T23:26:26.563Z,11.73
2022-12-19T23:28:56.871Z,11.98
2022-12-19T23:31:25.836Z,12.57
2022-12-19T23:33:54.065Z,11.88
2022-12-19T23:37:00.466Z,10.43
2022-12-19T23:39:12.338Z,12.00
2022-12-19T23:41:40.712Z,11.30
2022-12-19T23:44:09.216Z,11.20
2022-12-19T23:46:37.985Z,11.70
2022-12-19T23:49:05.988Z,11.50
2022-12-19T23:51:35.260Z,11.60
2022-12-19T23:54:03.296Z,11.13
2022-12-19T23:56:33.255Z,11.82
2022-12-19T23:59:01.682Z,11.10
